Time;durP1;ratioP1;P1;durP2;ratioP2;P2;SDS_P1;SDS_P2;PMS_P1;PMS_P2;Temp;Humidity;BMP_temperature;BMP_pressure;BME280_temperature;BME280_humidity;BME280_pressure;Samples;Min_cycle;Max_cycle;Signal;HPM_P1;HPM_P2
2022/08/07 00:00:55;;;;;;;7.53;3.92;;;;;;;;;;5052207;28;20033;-73
2022/08/07 00:03:23;;;;;;;10.13;3.47;;;;;;;;;;5052466;28;20037;-72
2022/08/07 00:05:51;;;;;;;8.90;4.00;;;;;;;;;;5052305;28;20044;-73
2022/08/07 00:08:18;;;;;;;5.13;3.85;;;;;;;;;;5052230;28;20036;-71
2022/08/07 00:10:44;;;;;;;8.18;4.03;;;;;;;;;;5052913;28;20443;-71
2022/08/07 00:13:10;;;;;;;8.23;3.80;;;;;;;;;;5051754;28;20047;-73
2022/08/07 00:15:37;;;;;;;7.10;4.00;;;;;;;;;;5052685;28;20114;-76
2022/08/07 00:18:03;;;;;;;6.60;3.80;;;;;;;;;;5052356;28;20037;-73
2022/08/07 00:20:29;;;;;;;4.50;3.67;;;;;;;;;;5052672;28;20033;-71
2022/08/07 00:22:55;;;;;;;5.18;3.85;;;;;;;;;;5052618;28;20063;-71
2022/08/07 00:25:23;;;;;;;5.43;4.20;;;;;;;;;;5052242;28;20037;-71
2022/08/07 00:27:50;;;;;;;9.60;4.00;;;;;;;;;;5034775;28;20037;-73
2022/08/07 00:30:17;;;;;;;6.25;4.25;;;;;;;;;;5052386;28;20526;-74
2022/08/07 00:32:47;;;;;;;5.50;4.25;;;;;;;;;;5052274;28;20029;-72
2022/08/07 00:35:14;;;;;;;8.45;4.45;;;;;;;;;;5052531;28;20029;-72
2022/08/07 00:37:40;;;;;;;8.63;4.82;;;;;;;;;;5033796;28;20043;-72
2022/08/07 00:40:06;;;;;;;7.95;4.63;;;;;;;;;;5034041;28;20111;-73
2022/08/07 00:42:33;;;;;;;7.75;4.10;;;;;;;;;;5052213;28;20033;-72
2022/08/07 00:44:59;;;;;;;8.15;4.10;;;;;;;;;;5029022;28;20040;-73
2022/08/07 00:47:25;;;;;;;7.45;4.18;;;;;;;;;;5014649;28;20037;-73
2022/08/07 00:49:51;;;;;;;11.32;4.90;;;;;;;;;;5013299;28;20109;-72
2022/08/07 00:52:17;;;;;;;11.95;4.78;;;;;;;;;;5022284;28;20103;-73
2022/08/07 00:54:43;;;;;;;11.45;4.65;;;;;;;;;;5044150;28;20112;-73
2022/08/07 00:57:09;;;;;;;8.63;4.95;;;;;;;;;;5017134;28;20029;-73
2022/08/07 00:59:36;;;;;;;11.98;4.97;;;;;;;;;;5014829;28;20385;-73
2022/08/07 01:02:07;;;;;;;8.27;4.50;;;;;;;;;;5032653;28;20037;-73
2022/08/07 01:04:33;;;;;;;9.88;4.93;;;;;;;;;;5032470;28;20039;-72
2022/08/07 01:07:00;;;;;;;8.93;4.68;;;;;;;;;;5032618;28;20114;-73
2022/08/07 01:09:27;;;;;;;8.82;5.05;;;;;;;;;;5014672;28;20448;-73
2022/08/07 01:11:53;;;;;;;7.88;4.57;;;;;;;;;;5014201;28;20060;-73
2022/08/07 01:14:20;;;;;;;7.97;4.65;;;;;;;;;;5032040;28;20131;-72
2022/08/07 01:16:47;;;;;;;15.55;4.60;;;;;;;;;;5014477;28;20374;-73
2022/08/07 01:19:15;;;;;;;15.52;5.40;;;;;;;;;;5014652;28;20029;-72
2022/08/07 01:21:41;;;;;;;11.27;5.30;;;;;;;;;;5014369;28;20392;-73
2022/08/07 01:24:08;;;;;;;9.98;4.53;;;;;;;;;;5031798;28;20123;-73
2022/08/07 01:26:34;;;;;;;9.80;4.63;;;;;;;;;;5014099;28;20040;-72
2022/08/07 01:29:01;;;;;;;7.97;4.85;;;;;;;;;;5031871;28;20034;-72
2022/08/07 01:31:32;;;;;;;5.63;4.47;;;;;;;;;;5029519;28;20044;-72
2022/08/07 01:34:01;;;;;;;6.85;4.32;;;;;;;;;;5010699;28;20409;-72
2022/08/07 01:36:32;;;;;;;8.30;4.10;;;;;;;;;;5010858;28;20038;-72
2022/08/07 01:39:00;;;;;;;6.72;4.18;;;;;;;;;;5011001;28;20037;-72
2022/08/07 01:41:27;;;;;;;8.10;4.30;;;;;;;;;;5012578;28;20033;-71
2022/08/07 01:43:58;;;;;;;10.32;4.40;;;;;;;;;;5015200;28;20038;-73
2022/08/07 01:46:25;;;;;;;8.55;4.32;;;;;;;;;;5027481;28;20485;-73
2022/08/07 01:48:51;;;;;;;8.80;4.55;;;;;;;;;;5011972;28;20041;-73
2022/08/07 01:51:23;;;;;;;8.43;4.60;;;;;;;;;;5026973;28;20512;-74
2022/08/07 01:53:56;;;;;;;10.60;4.28;;;;;;;;;;5010214;28;20504;-73
2022/08/07 01:56:27;;;;;;;8.80;3.85;;;;;;;;;;5010715;28;20069;-75
2022/08/07 01:58:59;;;;;;;7.90;4.28;;;;;;;;;;5010524;28;20132;-74
2022/08/07 02:01:30;;;;;;;6.30;4.05;;;;;;;;;;5012828;28;20052;-75
2022/08/07 02:04:07;;;;;;;9.73;4.03;;;;;;;;;;5019470;28;20044;-76
2022/08/07 02:06:36;;;;;;;6.63;3.90;;;;;;;;;;5015719;28;20037;-73
2022/08/07 02:09:08;;;;;;;6.30;4.20;;;;;;;;;;5023200;28;20045;-77
2022/08/07 02:11:39;;;;;;;8.68;4.50;;;;;;;;;;5033897;28;20123;-77
2022/08/07 02:14:08;;;;;;;6.05;3.72;;;;;;;;;;5034054;28;20033;-76
2022/08/07 02:16:37;;;;;;;10.38;4.10;;;;;;;;;;5050526;28;20065;-71
2022/08/07 02:19:08;;;;;;;7.07;4.13;;;;;;;;;;5050948;28;20495;-77
2022/08/07 02:21:37;;;;;;;16.05;5.32;;;;;;;;;;5050498;28;20038;-76
2022/08/07 02:24:04;;;;;;;12.85;4.85;;;;;;;;;;5035153;28;20049;-76
2022/08/07 02:26:34;;;;;;;10.30;4.57;;;;;;;;;;5050759;28;20029;-76
2022/08/07 02:29:06;;;;;;;7.57;4.03;;;;;;;;;;5050542;28;20034;-76
2022/08/07 02:31:34;;;;;;;11.52;4.80;;;;;;;;;;5050674;28;20290;-74
2022/08/07 02:34:03;;;;;;;12.07;4.72;;;;;;;;;;5033601;28;20049;-74
2022/08/07 02:36:31;;;;;;;7.60;4.40;;;;;;;;;;5034010;28;20030;-73
2022/08/07 02:39:03;;;;;;;13.52;5.15;;;;;;;;;;5035523;28;20049;-73
2022/08/07 02:41:30;;;;;;;12.73;4.97;;;;;;;;;;5050054;28;20036;-75
2022/08/07 02:43:58;;;;;;;7.90;4.65;;;;;;;;;;5050133;28;20049;-75
2022/08/07 02:46:29;;;;;;;11.52;4.82;;;;;;;;;;5050510;28;20033;-74
2022/08/07 02:48:57;;;;;;;20.45;5.47;;;;;;;;;;5050440;28;20484;-74
2022/08/07 02:51:26;;;;;;;9.93;4.40;;;;;;;;;;5049852;28;20041;-74
2022/08/07 02:53:54;;;;;;;14.95;5.22;;;;;;;;;;5049605;28;20037;-72
2022/08/07 02:56:23;;;;;;;9.27;4.82;;;;;;;;;;5034115;28;20033;-73
2022/08/07 02:58:51;;;;;;;5.40;4.43;;;;;;;;;;5034551;28;20076;-74
2022/08/07 03:01:21;;;;;;;18.00;6.13;;;;;;;;;;5050021;28;20064;-73
2022/08/07 03:03:48;;;;;;;9.93;4.72;;;;;;;;;;5033332;28;20037;-74
2022/08/07 03:06:20;;;;;;;9.00;4.60;;;;;;;;;;5050086;28;20087;-73
2022/08/07 03:08:46;;;;;;;14.27;5.63;;;;;;;;;;5034582;28;20065;-73
2022/08/07 03:11:13;;;;;;;16.52;5.18;;;;;;;;;;5033303;28;20044;-73
2022/08/07 03:13:43;;;;;;;13.15;5.40;;;;;;;;;;5033204;28;20065;-73
2022/08/07 03:16:09;;;;;;;7.22;4.43;;;;;;;;;;5032911;28;20554;-73
2022/08/07 03:18:37;;;;;;;7.68;3.90;;;;;;;;;;5033188;28;20108;-72
2022/08/07 03:21:06;;;;;;;9.50;5.20;;;;;;;;;;5049182;28;20034;-72
2022/08/07 03:23:33;;;;;;;8.43;5.10;;;;;;;;;;5034412;28;20036;-72
2022/08/07 03:26:02;;;;;;;7.88;5.07;;;;;;;;;;5034214;28;20037;-72
2022/08/07 03:28:34;;;;;;;8.85;5.55;;;;;;;;;;5049345;28;20496;-72
2022/08/07 03:31:18;;;;;;;8.88;4.78;;;;;;;;;;5032974;28;20029;-72
2022/08/07 03:33:51;;;;;;;7.97;4.75;;;;;;;;;;5048736;28;20059;-72
2022/08/07 03:36:20;;;;;;;12.75;5.13;;;;;;;;;;5049098;28;20040;-72
2022/08/07 03:38:48;;;;;;;5.82;4.47;;;;;;;;;;5016347;28;20037;-72
2022/08/07 03:41:16;;;;;;;10.73;5.00;;;;;;;;;;5032963;28;20168;-72
2022/08/07 03:43:42;;;;;;;7.90;4.45;;;;;;;;;;5034111;28;20049;-72
2022/08/07 03:46:08;;;;;;;7.45;4.68;;;;;;;;;;5033750;28;20036;-72
2022/08/07 03:48:36;;;;;;;6.68;4.40;;;;;;;;;;5032474;28;20040;-72
2022/08/07 03:51:03;;;;;;;7.82;4.38;;;;;;;;;;5039967;28;20041;-72
2022/08/07 03:53:37;;;;;;;7.22;4.20;;;;;;;;;;5032376;28;20073;-72
2022/08/07 03:56:09;;;;;;;8.93;3.90;;;;;;;;;;5032829;28;20400;-71
2022/08/07 03:58:37;;;;;;;9.73;4.88;;;;;;;;;;5032349;28;20114;-72
2022/08/07 04:01:07;;;;;;;6.78;5.07;;;;;;;;;;5032483;28;20061;-72
2022/08/07 04:03:36;;;;;;;11.57;4.85;;;;;;;;;;5032367;28;20029;-72
2022/08/07 04:06:02;;;;;;;8.13;4.53;;;;;;;;;;5033503;28;20544;-72
2022/08/07 04:08:28;;;;;;;8.98;4.13;;;;;;;;;;5032216;28;20140;-72
2022/08/07 04:10:56;;;;;;;8.77;4.32;;;;;;;;;;5031722;28;20044;-72
2022/08/07 04:13:23;;;;;;;10.85;4.35;;;;;;;;;;5032187;28;20128;-72
2022/08/07 04:15:49;;;;;;;6.32;4.07;;;;;;;;;;5031922;28;20036;-72
2022/08/07 04:18:16;;;;;;;6.20;4.32;;;;;;;;;;5032118;28;20060;-72
2022/08/07 04:20:45;;;;;;;8.60;4.57;;;;;;;;;;5031972;28;20030;-72
2022/08/07 04:23:13;;;;;;;5.53;4.32;;;;;;;;;;5031975;28;20496;-72
2022/08/07 04:25:40;;;;;;;8.25;4.20;;;;;;;;;;5032435;28;20033;-72
2022/08/07 04:28:11;;;;;;;5.72;3.80;;;;;;;;;;5057989;28;20496;-72
2022/08/07 04:30:38;;;;;;;9.90;4.38;;;;;;;;;;5048428;28;20477;-73
2022/08/07 04:33:19;;;;;;;9.10;4.65;;;;;;;;;;5049755;28;20369;-73
2022/08/07 04:35:48;;;;;;;6.38;4.15;;;;;;;;;;5051035;28;20132;-73
2022/08/07 04:38:16;;;;;;;7.70;4.03;;;;;;;;;;5051675;28;20025;-73
2022/08/07 04:40:46;;;;;;;11.00;4.65;;;;;;;;;;5052433;28;20033;-73
2022/08/07 04:43:16;;;;;;;6.55;4.90;;;;;;;;;;5053850;28;20158;-74
2022/08/07 04:46:08;;;;;;;11.23;4.35;;;;;;;;;;5052419;28;20037;-73
2022/08/07 04:48:53;;;;;;;9.48;4.63;;;;;;;;;;5046531;28;20060;-73
2022/08/07 04:51:34;;;;;;;5.05;3.88;;;;;;;;;;5053852;28;20476;-75
2022/08/07 04:54:07;;;;;;;7.40;3.75;;;;;;;;;;5052453;28;20041;-75
2022/08/07 04:56:47;;;;;;;5.68;4.28;;;;;;;;;;5052491;28;20033;-76
2022/08/07 04:59:25;;;;;;;8.85;3.80;;;;;;;;;;5052367;28;20029;-76
2022/08/07 05:02:20;;;;;;;7.22;4.10;;;;;;;;;;5052514;28;20029;-75
2022/08/07 05:05:11;;;;;;;6.30;3.92;;;;;;;;;;5052203;28;20037;-77
2022/08/07 05:08:06;;;;;;;9.60;3.70;;;;;;;;;;5035598;28;20037;-77
2022/08/07 05:10:38;;;;;;;9.05;3.85;;;;;;;;;;5053506;28;20041;-77
2022/08/07 05:13:11;;;;;;;10.57;3.90;;;;;;;;;;5053273;28;20480;-75
2022/08/07 05:15:41;;;;;;;5.85;3.67;;;;;;;;;;5051826;28;20037;-72
2022/08/07 05:18:26;;;;;;;4.90;3.97;;;;;;;;;;5051861;28;20033;-77
2022/08/07 05:21:01;;;;;;;6.35;4.15;;;;;;;;;;5053079;28;20041;-76
2022/08/07 05:23:52;;;;;;;7.68;3.60;;;;;;;;;;5051559;28;20029;-73
2022/08/07 05:26:21;;;;;;;6.13;3.60;;;;;;;;;;5052898;28;20119;-73
2022/08/07 05:28:54;;;;;;;8.32;4.10;;;;;;;;;;5051569;28;20039;-73
2022/08/07 05:31:28;;;;;;;6.50;3.90;;;;;;;;;;5051887;28;20488;-73
2022/08/07 05:33:57;;;;;;;6.97;3.73;;;;;;;;;;5052698;28;20056;-73
2022/08/07 05:36:26;;;;;;;8.30;4.20;;;;;;;;;;5051679;28;20037;-73
2022/08/07 05:38:53;;;;;;;5.78;4.13;;;;;;;;;;5050781;28;20040;-74
2022/08/07 05:41:20;;;;;;;6.20;3.90;;;;;;;;;;5051665;28;20476;-73
2022/08/07 05:43:53;;;;;;;8.70;4.57;;;;;;;;;;5051405;28;20052;-73
2022/08/07 05:46:20;;;;;;;7.53;4.47;;;;;;;;;;5051416;28;20037;-73
2022/08/07 05:48:49;;;;;;;9.27;4.50;;;;;;;;;;5028797;28;20036;-73
2022/08/07 05:51:17;;;;;;;6.05;4.00;;;;;;;;;;5051492;28;20437;-73
2022/08/07 05:53:43;;;;;;;7.78;3.80;;;;;;;;;;5032500;28;20034;-73
2022/08/07 05:56:12;;;;;;;7.95;4.13;;;;;;;;;;5038138;28;20025;-73
2022/08/07 05:58:46;;;;;;;9.68;4.35;;;;;;;;;;5040665;28;20034;-73
2022/08/07 06:01:14;;;;;;;5.82;3.90;;;;;;;;;;5031124;28;20056;-73
2022/08/07 06:03:53;;;;;;;5.18;3.85;;;;;;;;;;5036404;28;20037;-73
2022/08/07 06:06:20;;;;;;;10.38;4.88;;;;;;;;;;5058572;28;20042;-76
2022/08/07 06:08:50;;;;;;;6.45;3.97;;;;;;;;;;5030922;28;20029;-74
2022/08/07 06:11:16;;;;;;;6.72;4.53;;;;;;;;;;5032524;28;20151;-73
2022/08/07 06:13:42;;;;;;;5.80;4.15;;;;;;;;;;5032268;28;20025;-74
2022/08/07 06:16:09;;;;;;;6.55;4.18;;;;;;;;;;5031216;28;20133;-73
2022/08/07 06:18:36;;;;;;;13.77;4.22;;;;;;;;;;5031227;28;20037;-74
2022/08/07 06:21:04;;;;;;;9.13;4.68;;;;;;;;;;5031230;28;20480;-74
2022/08/07 06:23:32;;;;;;;9.20;4.32;;;;;;;;;;5031049;28;20116;-74
2022/08/07 06:25:59;;;;;;;8.90;4.30;;;;;;;;;;5032427;28;20057;-74
2022/08/07 06:28:26;;;;;;;8.60;4.38;;;;;;;;;;5030840;28;20484;-75
2022/08/07 06:30:52;;;;;;;5.32;3.67;;;;;;;;;;5033215;28;20036;-74
2022/08/07 06:33:18;;;;;;;6.10;3.72;;;;;;;;;;5050675;28;20057;-74
2022/08/07 06:35:47;;;;;;;6.13;3.80;;;;;;;;;;5050641;28;20044;-73
2022/08/07 06:38:13;;;;;;;6.35;4.00;;;;;;;;;;5050860;28;20128;-73
2022/08/07 06:40:50;;;;;;;5.60;3.42;;;;;;;;;;5046553;28;20083;-73
2022/08/07 06:43:22;;;;;;;6.50;4.13;;;;;;;;;;5031535;28;20033;-73
2022/08/07 06:46:07;;;;;;;6.07;4.03;;;;;;;;;;5044088;28;20029;-73
2022/08/07 06:48:34;;;;;;;10.63;4.15;;;;;;;;;;5053956;28;20034;-73
2022/08/07 06:51:06;;;;;;;4.70;3.55;;;;;;;;;;5064635;28;20123;-73
2022/08/07 06:53:35;;;;;;;5.95;3.90;;;;;;;;;;5053602;28;20033;-74
2022/08/07 06:56:07;;;;;;;5.25;3.50;;;;;;;;;;5049928;28;20076;-73
2022/08/07 06:58:35;;;;;;;6.03;3.33;;;;;;;;;;5038391;28;20029;-72
2022/08/07 07:01:08;;;;;;;3.67;3.30;;;;;;;;;;5053583;28;20041;-75
2022/08/07 07:03:38;;;;;;;3.75;3.10;;;;;;;;;;5052501;28;20040;-71
2022/08/07 07:06:05;;;;;;;5.15;3.58;;;;;;;;;;5053540;28;20052;-73
2022/08/07 07:08:33;;;;;;;7.38;3.70;;;;;;;;;;5053182;28;20108;-72
2022/08/07 07:11:00;;;;;;;4.35;3.35;;;;;;;;;;5053078;28;20048;-72
2022/08/07 07:13:35;;;;;;;6.30;3.63;;;;;;;;;;5052144;28;20079;-72
2022/08/07 07:16:13;;;;;;;3.92;3.53;;;;;;;;;;5054484;28;20491;-71
2022/08/07 07:18:50;;;;;;;11.13;3.92;;;;;;;;;;5042749;28;20029;-72
2022/08/07 07:21:22;;;;;;;6.65;3.63;;;;;;;;;;5048261;28;20038;-71
2022/08/07 07:23:49;;;;;;;5.53;3.50;;;;;;;;;;5033717;28;20116;-75
2022/08/07 07:26:18;;;;;;;4.43;3.45;;;;;;;;;;5034353;28;20706;-73
2022/08/07 07:28:57;;;;;;;6.25;4.10;;;;;;;;;;5032357;28;20033;-73
2022/08/07 07:31:46;;;;;;;6.75;3.63;;;;;;;;;;5033880;28;20112;-74
2022/08/07 07:34:18;;;;;;;6.18;3.92;;;;;;;;;;5043684;28;20045;-72
2022/08/07 07:36:46;;;;;;;7.97;4.50;;;;;;;;;;5053247;28;20073;-72
2022/08/07 07:39:14;;;;;;;4.78;3.50;;;;;;;;;;5053500;28;20063;-72
2022/08/07 07:41:44;;;;;;;5.75;4.30;;;;;;;;;;5053005;28;20193;-72
2022/08/07 07:44:12;;;;;;;5.95;3.97;;;;;;;;;;5052823;28;20061;-73
2022/08/07 07:46:39;;;;;;;6.53;4.05;;;;;;;;;;5053154;28;20388;-74
2022/08/07 07:49:08;;;;;;;6.15;4.00;;;;;;;;;;5053559;28;20037;-74
2022/08/07 07:51:36;;;;;;;6.38;3.95;;;;;;;;;;5053153;28;20480;-73
2022/08/07 07:54:05;;;;;;;4.85;3.70;;;;;;;;;;5053413;28;20104;-73
2022/08/07 07:56:32;;;;;;;6.32;4.20;;;;;;;;;;5053362;28;20099;-73
2022/08/07 07:59:03;;;;;;;6.82;4.47;;;;;;;;;;5052576;28;20431;-73
2022/08/07 08:01:31;;;;;;;6.18;4.47;;;;;;;;;;5052647;28;20087;-73
2022/08/07 08:04:02;;;;;;;6.03;4.13;;;;;;;;;;5053218;28;20542;-75
2022/08/07 08:06:30;;;;;;;6.07;4.63;;;;;;;;;;5046297;28;20030;-75
2022/08/07 08:08:58;;;;;;;9.13;4.22;;;;;;;;;;5033203;28;20037;-76
2022/08/07 08:11:24;;;;;;;5.72;3.80;;;;;;;;;;5035862;28;20037;-72
2022/08/07 08:13:50;;;;;;;5.05;4.05;;;;;;;;;;5033679;28;20485;-73
2022/08/07 08:16:20;;;;;;;6.18;4.07;;;;;;;;;;5033101;28;20033;-72
2022/08/07 08:18:50;;;;;;;7.38;4.32;;;;;;;;;;5050470;28;20043;-74
2022/08/07 08:27:04;;;;;;;4.95;3.65;;;;;;;;;;5043512;28;20041;-73
2022/08/07 08:29:35;;;;;;;5.60;4.30;;;;;;;;;;5032715;28;20117;-72
2022/08/07 08:32:04;;;;;;;5.18;4.35;;;;;;;;;;5033156;28;20033;-74
2022/08/07 08:34:34;;;;;;;8.75;4.45;;;;;;;;;;5032367;28;20046;-72
2022/08/07 08:37:03;;;;;;;5.57;4.30;;;;;;;;;;5037054;28;20029;-73
2022/08/07 08:39:30;;;;;;;6.65;4.30;;;;;;;;;;5052496;28;20040;-75
2022/08/07 08:42:03;;;;;;;7.97;4.40;;;;;;;;;;5051308;28;20032;-71
2022/08/07 08:44:59;;;;;;;6.22;4.43;;;;;;;;;;5044871;28;20041;-73
2022/08/07 08:47:36;;;;;;;6.00;4.55;;;;;;;;;;5032440;28;20030;-73
2022/08/07 08:50:32;;;;;;;6.22;4.22;;;;;;;;;;5035631;28;20477;-72
2022/08/07 08:53:25;;;;;;;5.93;4.53;;;;;;;;;;5031840;28;20034;-71
2022/08/07 08:55:55;;;;;;;4.78;4.22;;;;;;;;;;5032246;28;20559;-74
2022/08/07 08:59:01;;;;;;;6.07;4.18;;;;;;;;;;5031984;28;20034;-74
2022/08/07 09:01:48;;;;;;;4.70;4.20;;;;;;;;;;5043608;28;20067;-74
2022/08/07 09:04:29;;;;;;;5.30;4.20;;;;;;;;;;5051027;28;20040;-71
2022/08/07 09:07:04;;;;;;;4.90;4.13;;;;;;;;;;5044546;28;20389;-71
2022/08/07 09:09:37;;;;;;;7.10;4.25;;;;;;;;;;5036634;28;20032;-71
2022/08/07 09:12:25;;;;;;;8.27;4.53;;;;;;;;;;5045659;28;20061;-71
2022/08/07 09:15:12;;;;;;;6.28;4.25;;;;;;;;;;5034632;28;20094;-73
2022/08/07 09:17:54;;;;;;;5.13;4.20;;;;;;;;;;5050964;28;20391;-71
2022/08/07 09:20:31;;;;;;;5.05;3.63;;;;;;;;;;5041949;28;20030;-71
2022/08/07 09:23:27;;;;;;;5.07;4.15;;;;;;;;;;5048935;28;20044;-71
2022/08/07 09:26:24;;;;;;;4.90;4.40;;;;;;;;;;5048432;28;20041;-72
2022/08/07 09:28:57;;;;;;;5.15;4.43;;;;;;;;;;5048529;28;20109;-71
2022/08/07 09:31:44;;;;;;;4.97;3.88;;;;;;;;;;5050709;28;20040;-72
2022/08/07 09:34:15;;;;;;;4.78;4.28;;;;;;;;;;5036332;28;20041;-73
2022/08/07 09:36:59;;;;;;;4.75;4.10;;;;;;;;;;5036036;28;20087;-70
2022/08/07 09:39:44;;;;;;;8.25;4.30;;;;;;;;;;5038805;28;20057;-69
2022/08/07 09:42:10;;;;;;;5.88;4.07;;;;;;;;;;5037666;28;20476;-69
2022/08/07 09:44:51;;;;;;;4.35;3.78;;;;;;;;;;5040965;28;20030;-68
2022/08/07 09:47:34;;;;;;;6.22;4.28;;;;;;;;;;5032745;28;20457;-69
2022/08/07 09:50:17;;;;;;;5.28;4.13;;;;;;;;;;5032204;28;20049;-69
2022/08/07 09:53:00;;;;;;;5.93;4.45;;;;;;;;;;5032522;28;20033;-69
2022/08/07 09:56:08;;;;;;;5.32;4.00;;;;;;;;;;5051765;28;20047;-69
2022/08/07 09:58:59;;;;;;;4.50;3.80;;;;;;;;;;5052296;28;20082;-69
2022/08/07 10:01:31;;;;;;;4.18;3.58;;;;;;;;;;5052390;28;20066;-69
2022/08/07 10:04:05;;;;;;;7.53;4.43;;;;;;;;;;5052246;28;20447;-69
2022/08/07 10:06:31;;;;;;;6.82;4.00;;;;;;;;;;5051800;28;20033;-69
2022/08/07 10:09:13;;;;;;;5.65;4.15;;;;;;;;;;5052190;28;20036;-69
2022/08/07 10:12:00;;;;;;;5.43;4.28;;;;;;;;;;5051856;28;20045;-68
2022/08/07 10:15:13;;;;;;;5.22;4.10;;;;;;;;;;5051983;28;20041;-68
2022/08/07 10:17:54;;;;;;;7.25;4.50;;;;;;;;;;5050595;28;20043;-68
2022/08/07 10:20:38;;;;;;;9.30;4.75;;;;;;;;;;5051518;28;20029;-70
2022/08/07 10:23:41;;;;;;;4.57;4.18;;;;;;;;;;5051978;28;20033;-69
2022/08/07 10:26:13;;;;;;;5.35;3.80;;;;;;;;;;5054410;28;20033;-68
2022/08/07 10:28:59;;;;;;;3.97;3.58;;;;;;;;;;5055961;28;20029;-68
2022/08/07 10:31:47;;;;;;;5.28;3.60;;;;;;;;;;5055581;28;20037;-68
2022/08/07 10:34:40;;;;;;;6.28;3.55;;;;;;;;;;5055577;28;20045;-68
2022/08/07 10:37:17;;;;;;;5.90;4.03;;;;;;;;;;5055965;28;21139;-70
2022/08/07 10:39:43;;;;;;;5.63;3.90;;;;;;;;;;5055486;28;20051;-68
2022/08/07 10:42:41;;;;;;;5.25;3.90;;;;;;;;;;5055174;28;20519;-69
2022/08/07 10:45:23;;;;;;;5.70;3.50;;;;;;;;;;5054830;28;20033;-68
2022/08/07 10:48:15;;;;;;;6.30;3.42;;;;;;;;;;5055412;28;20029;-68
2022/08/07 10:50:48;;;;;;;9.10;4.15;;;;;;;;;;5055519;28;20093;-70
2022/08/07 10:53:42;;;;;;;5.30;3.85;;;;;;;;;;5055092;28;20044;-68
2022/08/07 10:56:11;;;;;;;4.57;3.70;;;;;;;;;;5054888;28;20033;-68
2022/08/07 10:58:51;;;;;;;4.50;3.70;;;;;;;;;;5054076;28;20037;-68
2022/08/07 11:01:30;;;;;;;4.15;3.60;;;;;;;;;;5055146;28;20428;-67
2022/08/07 11:04:24;;;;;;;5.60;4.30;;;;;;;;;;5049747;28;20033;-67
2022/08/07 11:07:05;;;;;;;8.13;4.35;;;;;;;;;;5066089;28;20069;-68
2022/08/07 11:09:38;;;;;;;5.28;4.13;;;;;;;;;;5049159;28;20025;-69
2022/08/07 11:12:17;;;;;;;4.45;3.80;;;;;;;;;;5055303;28;20032;-68
2022/08/07 11:14:51;;;;;;;5.63;4.25;;;;;;;;;;5054716;28;20036;-68
2022/08/07 11:17:24;;;;;;;6.90;4.20;;;;;;;;;;5054940;28;20025;-69
2022/08/07 11:19:58;;;;;;;8.10;4.43;;;;;;;;;;5055010;28;20033;-68
2022/08/07 11:22:28;;;;;;;4.70;3.90;;;;;;;;;;5054288;28;20051;-69
2022/08/07 11:25:29;;;;;;;4.95;4.10;;;;;;;;;;5041827;28;20040;-69
2022/08/07 11:28:27;;;;;;;6.97;5.22;;;;;;;;;;5034943;28;20041;-68
2022/08/07 11:31:17;;;;;;;8.02;4.63;;;;;;;;;;5027436;28;20046;-69
2022/08/07 11:33:52;;;;;;;5.00;4.20;;;;;;;;;;5034715;28;20396;-69
2022/08/07 11:36:37;;;;;;;7.20;4.60;;;;;;;;;;5050805;28;20033;-70
2022/08/07 11:39:14;;;;;;;9.48;7.70;;;;;;;;;;5054802;28;20116;-69
2022/08/07 11:41:48;;;;;;;32.10;24.63;;;;;;;;;;5054418;28;20033;-68
2022/08/07 11:44:59;;;;;;;4.72;4.20;;;;;;;;;;5054769;28;20055;-70
2022/08/07 11:47:48;;;;;;;18.42;13.63;;;;;;;;;;5051920;28;20506;-73
2022/08/07 11:50:33;;;;;;;18.95;11.30;;;;;;;;;;5054542;28;20033;-69
2022/08/07 11:53:40;;;;;;;8.30;5.15;;;;;;;;;;5054221;28;20041;-72
2022/08/07 11:56:43;;;;;;;6.85;4.57;;;;;;;;;;5046773;28;20036;-69
2022/08/07 11:59:32;;;;;;;;;;;;;;;;;;5054850;28;20357;-69
2022/08/07 12:02:27;;;;;;;8.00;5.05;;;;;;;;;;5050017;28;19990;-70
2022/08/07 12:05:11;;;;;;;6.93;5.53;;;;;;;;;;5049329;28;20041;-70
2022/08/07 12:07:47;;;;;;;4.38;3.97;;;;;;;;;;5054051;28;20061;-69
2022/08/07 12:10:20;;;;;;;6.82;4.15;;;;;;;;;;5054074;28;20051;-70
2022/08/07 12:12:55;;;;;;;5.05;4.45;;;;;;;;;;5053578;28;20542;-70
2022/08/07 12:15:29;;;;;;;7.28;4.55;;;;;;;;;;5053865;28;20124;-69
2022/08/07 12:18:28;;;;;;;5.10;4.43;;;;;;;;;;5054084;28;20128;-70
2022/08/07 12:21:08;;;;;;;7.18;4.32;;;;;;;;;;5053843;28;20032;-70
2022/08/07 12:23:45;;;;;;;6.40;4.13;;;;;;;;;;5053786;28;20104;-69
2022/08/07 12:26:27;;;;;;;6.70;4.20;;;;;;;;;;5053501;28;20056;-69
2022/08/07 12:29:17;;;;;;;5.70;3.95;;;;;;;;;;5053908;28;20039;-70
2022/08/07 12:31:58;;;;;;;6.10;4.35;;;;;;;;;;5053774;28;20025;-70
2022/08/07 12:34:28;;;;;;;6.72;4.60;;;;;;;;;;5044440;28;20056;-69
2022/08/07 12:36:56;;;;;;;6.63;4.28;;;;;;;;;;5033366;28;20037;-69
2022/08/07 12:39:24;;;;;;;4.88;4.38;;;;;;;;;;5046588;28;20419;-69
2022/08/07 12:41:52;;;;;;;7.53;4.50;;;;;;;;;;5052879;28;20032;-69
2022/08/07 12:44:20;;;;;;;5.63;5.13;;;;;;;;;;5052836;28;20041;-70
2022/08/07 12:47:16;;;;;;;5.80;4.50;;;;;;;;;;5053362;28;20033;-70
2022/08/07 12:50:03;;;;;;;5.32;4.40;;;;;;;;;;5051582;28;20119;-72
2022/08/07 12:52:48;;;;;;;6.00;4.10;;;;;;;;;;5051798;28;20384;-70
2022/08/07 12:55:34;;;;;;;7.40;4.55;;;;;;;;;;5052868;28;20041;-70
2022/08/07 12:58:02;;;;;;;6.53;4.95;;;;;;;;;;5053427;28;20037;-70
2022/08/07 13:00:53;;;;;;;7.78;4.82;;;;;;;;;;5053251;28;20053;-70
2022/08/07 13:03:50;;;;;;;5.90;4.85;;;;;;;;;;5051984;28;20052;-70
2022/08/07 13:06:43;;;;;;;5.85;4.35;;;;;;;;;;5052960;28;20029;-70
2022/08/07 13:09:21;;;;;;;;;;;;;;;;;;5053366;28;20392;-70
2022/08/07 13:12:06;;;;;;;8.07;4.95;;;;;;;;;;5053203;28;19995;-69
2022/08/07 13:14:53;;;;;;;7.53;4.55;;;;;;;;;;5051659;28;20470;-70
2022/08/07 13:17:37;;;;;;;5.10;4.47;;;;;;;;;;5052635;28;20028;-70
2022/08/07 13:20:12;;;;;;;5.35;4.78;;;;;;;;;;5053397;28;20033;-70
2022/08/07 13:22:51;;;;;;;5.85;4.90;;;;;;;;;;5053276;28;20033;-69
2022/08/07 13:25:26;;;;;;;5.20;4.32;;;;;;;;;;5048777;28;20353;-69
2022/08/07 13:27:57;;;;;;;6.28;4.60;;;;;;;;;;5033256;28;20428;-70
2022/08/07 13:30:25;;;;;;;6.05;4.40;;;;;;;;;;5033317;28;20061;-71
2022/08/07 13:33:29;;;;;;;7.07;4.13;;;;;;;;;;5032852;28;20369;-69
2022/08/07 13:36:00;;;;;;;6.10;4.53;;;;;;;;;;5025820;28;20128;-69
2022/08/07 13:38:44;;;;;;;6.20;4.53;;;;;;;;;;5032948;28;20029;-73
2022/08/07 13:41:22;;;;;;;5.70;4.60;;;;;;;;;;5033020;28;20057;-69
2022/08/07 13:43:50;;;;;;;6.57;4.78;;;;;;;;;;5033012;28;20099;-70
2022/08/07 13:46:18;;;;;;;6.25;4.30;;;;;;;;;;5032882;28;20056;-70
2022/08/07 13:48:51;;;;;;;6.82;4.57;;;;;;;;;;5032693;28;20476;-70
2022/08/07 13:51:18;;;;;;;9.35;5.03;;;;;;;;;;5032565;28;20132;-70
2022/08/07 13:53:55;;;;;;;8.60;4.72;;;;;;;;;;5032344;28;20484;-69
2022/08/07 13:56:23;;;;;;;5.70;4.70;;;;;;;;;;5032576;28;20079;-70
2022/08/07 13:59:01;;;;;;;4.93;4.43;;;;;;;;;;5032662;28;20152;-70
2022/08/07 14:01:37;;;;;;;5.82;4.75;;;;;;;;;;5032132;28;20025;-69
2022/08/07 14:04:13;;;;;;;4.68;3.95;;;;;;;;;;5032804;28;20030;-69
2022/08/07 14:06:44;;;;;;;6.28;4.32;;;;;;;;;;5032611;28;20033;-69
2022/08/07 14:09:21;;;;;;;6.22;4.85;;;;;;;;;;5032620;28;20473;-69
2022/08/07 14:11:57;;;;;;;6.97;4.43;;;;;;;;;;5047738;28;20037;-70
2022/08/07 14:14:30;;;;;;;4.72;4.18;;;;;;;;;;5032219;28;20535;-70
2022/08/07 14:17:00;;;;;;;7.78;4.95;;;;;;;;;;5032434;28;20397;-69
2022/08/07 14:19:43;;;;;;;4.57;3.92;;;;;;;;;;5032419;28;20384;-69
2022/08/07 14:22:14;;;;;;;6.80;5.00;;;;;;;;;;5032589;28;20038;-69
2022/08/07 14:24:47;;;;;;;5.18;4.03;;;;;;;;;;5032397;28;20101;-70
2022/08/07 14:27:15;;;;;;;5.32;4.40;;;;;;;;;;5032202;28;20037;-70
2022/08/07 14:29:48;;;;;;;6.38;4.53;;;;;;;;;;5032368;28;20036;-70
2022/08/07 14:32:16;;;;;;;6.22;4.63;;;;;;;;;;5032480;28;20034;-70
2022/08/07 14:34:45;;;;;;;8.70;4.72;;;;;;;;;;5032225;28;20382;-70
2022/08/07 14:37:13;;;;;;;6.47;4.25;;;;;;;;;;5032231;28;20091;-70
2022/08/07 14:39:41;;;;;;;7.93;4.55;;;;;;;;;;5032295;28;20031;-69
2022/08/07 14:42:13;;;;;;;7.00;5.28;;;;;;;;;;5032511;28;20064;-69
2022/08/07 14:44:49;;;;;;;7.88;4.80;;;;;;;;;;5032400;28;20060;-69
2022/08/07 14:47:17;;;;;;;5.05;4.50;;;;;;;;;;5032303;28;20045;-69
2022/08/07 14:49:44;;;;;;;5.63;4.55;;;;;;;;;;5032238;28;20056;-69
2022/08/07 14:52:10;;;;;;;5.32;4.60;;;;;;;;;;5032256;28;20029;-70
2022/08/07 14:54:39;;;;;;;5.70;4.68;;;;;;;;;;5032236;28;20041;-71
2022/08/07 14:57:09;;;;;;;4.93;4.40;;;;;;;;;;5032270;28;20034;-70
2022/08/07 14:59:38;;;;;;;6.05;4.30;;;;;;;;;;5032336;28;20119;-70
2022/08/07 15:02:17;;;;;;;6.55;4.65;;;;;;;;;;5032324;28;20033;-70
2022/08/07 15:04:46;;;;;;;6.95;4.80;;;;;;;;;;5032461;28;20420;-73
2022/08/07 15:07:22;;;;;;;7.78;4.75;;;;;;;;;;5032369;28;20033;-69
2022/08/07 15:09:51;;;;;;;4.72;4.22;;;;;;;;;;5031129;28;20033;-70
2022/08/07 15:12:23;;;;;;;5.57;4.53;;;;;;;;;;5034446;28;20034;-70
2022/08/07 15:14:51;;;;;;;5.57;4.68;;;;;;;;;;5035577;28;20061;-69
2022/08/07 15:17:20;;;;;;;5.57;4.82;;;;;;;;;;5035687;28;20093;-70
2022/08/07 15:19:59;;;;;;;6.72;4.50;;;;;;;;;;5035594;28;20026;-70
2022/08/07 15:22:42;;;;;;;5.93;4.20;;;;;;;;;;5035695;28;20065;-70
2022/08/07 15:25:11;;;;;;;7.22;4.88;;;;;;;;;;5035485;28;20175;-70
2022/08/07 15:27:40;;;;;;;8.05;4.60;;;;;;;;;;5035749;28;20390;-70
2022/08/07 15:30:11;;;;;;;6.75;4.88;;;;;;;;;;5035439;28;20034;-71